SLRY  Reyes Airport

Add Bookmark

Reyes, Bolivia

Status IATA
Operational REY
Latitude Longitude
14° 18' 15" S 67° 21' 12" W
-14.304400 -67.353401
Local (DST -4) UTC (GMT -4)
Nov 26, 2014 08:27 Nov 26, 2014 12:27
Sunrise-Sunset Local UTC
Begin Civil Twilight 05:26 09:26
Sunrise 05:49 09:49
Sunset 06:44 22:44
End Civil Twilight 07:07 23:07

Current Weather

METAR Observed VFR
SLRY 261200Z 00000KT 9999 FEW015 SCT020 OVC200 24/23 Q1009 Wed, Nov 26, 2014 @ 12:00 UTC
(27 Minutes ago)
Visual Flight Rules
Wind Visibility Clouds Conditions
Calm 10 km or more
  • Few at 1,500' AGL
  • Scattered at 2,000' AGL
  • Overcast at 20,000' AGL
  • No significant weather
Temperatures Readings Precipitation
Current Temp 24°C (75°F)
Dewpoint 23°C (73°F)
Humidity 94%
Altimeter 29.79"Hg
Sea Level Pressure 1009mb
Field Elevation 918.64'
None Recorded

Additional weather within a 92.6km radius of SLRY

Map ICAO Location
SLRQ 20.7km S (229°)

24 Hour Weather History

Loading
-

24 Hour Weather Graphs

Loading
-

CheckWX.com is intended as a tool to help pilots better visualize weather data. It is not intended as a substitute for an official weather briefing obtained from a Flight Service Station. CheckWX.com does not meet the FAA requirements for an official pre-flight weather briefing. Therefore, it's important that pilots still call and obtain an official FSS pre-flight weather briefing.